createdAt,value
2022-08-20T00:01:44.813Z,93219.52
2022-08-20T00:06:52.364Z,93223.41
2022-08-20T00:11:59.343Z,93231.16
2022-08-20T00:17:07.739Z,93233.17
2022-08-20T00:22:15.159Z,93233.63
2022-08-20T00:27:22.253Z,93230.33
2022-08-20T00:32:30.134Z,93224.39
2022-08-20T00:37:37.745Z,93237.55
2022-08-20T00:42:58.600Z,93240.15
2022-08-20T00:48:07.079Z,93239.73
2022-08-20T00:53:15.874Z,93238.20
2022-08-20T00:58:24.048Z,93232.83
2022-08-20T01:03:31.562Z,93226.36
2022-08-20T01:08:40.313Z,93231.37
2022-08-20T01:13:49.418Z,93237.41
2022-08-20T01:18:58.166Z,93247.89
2022-08-20T01:24:30.463Z,93243.22
2022-08-20T01:29:40.628Z,93234.22
2022-08-20T01:34:47.478Z,93238.08
2022-08-20T01:39:54.274Z,93234.68
2022-08-20T01:45:02.051Z,93238.63
2022-08-20T01:50:21.482Z,93229.40
2022-08-20T01:55:28.967Z,93222.56
2022-08-20T02:00:36.901Z,93227.06
2022-08-20T02:05:43.610Z,93227.22
2022-08-20T02:10:52.150Z,93239.66
2022-08-20T02:15:58.896Z,93234.70
2022-08-20T02:21:06.571Z,93235.83
2022-08-20T02:26:13.413Z,93233.51
2022-08-20T02:31:24.113Z,93227.73
2022-08-20T02:36:30.810Z,93220.38
2022-08-20T02:41:41.655Z,93223.91
2022-08-20T02:46:50.978Z,93226.32
2022-08-20T02:51:57.776Z,93220.20
2022-08-20T02:57:05.517Z,93212.58
2022-08-20T03:02:13.336Z,93198.66
2022-08-20T03:07:20.436Z,93180.50
2022-08-20T03:12:28.478Z,93179.05
2022-08-20T03:17:36.369Z,93190.90
2022-08-20T03:22:45.112Z,93198.62
2022-08-20T03:27:54.420Z,93200.27
2022-08-20T03:33:00.558Z,93190.30
2022-08-20T03:38:15.103Z,93186.09
2022-08-20T03:43:21.969Z,93194.47
2022-08-20T03:48:30.699Z,93197.98
2022-08-20T03:53:38.271Z,93190.24
2022-08-20T03:58:47.156Z,93197.33
2022-08-20T04:03:55.378Z,93187.63
2022-08-20T04:09:03.818Z,93194.04
2022-08-20T04:14:18.751Z,93200.49
2022-08-20T04:19:23.097Z,93206.69
2022-08-20T04:24:31.950Z,93220.85
2022-08-20T04:29:42.525Z,93221.91
2022-08-20T04:34:52.006Z,93235.13
2022-08-20T04:40:10.101Z,93234.63
2022-08-20T04:45:17.883Z,93231.20
2022-08-20T04:50:25.321Z,93227.83
2022-08-20T04:55:34.808Z,93233.95
2022-08-20T05:00:44.841Z,93235.42
2022-08-20T05:05:52.886Z,93238.98
2022-08-20T05:11:34.773Z,93236.23
2022-08-20T05:16:10.739Z,93242.70
2022-08-20T05:21:17.483Z,93240.72
2022-08-20T05:26:25.760Z,93235.53
2022-08-20T05:31:34.302Z,93244.64
2022-08-20T05:36:48.241Z,93250.63
2022-08-20T05:41:54.818Z,93249.06
2022-08-20T05:47:04.179Z,93250.56
2022-08-20T05:52:11.454Z,93257.17
2022-08-20T05:57:21.308Z,93253.23
2022-08-20T06:02:46.073Z,93259.06
2022-08-20T06:08:07.072Z,93271.53
2022-08-20T06:13:05.828Z,93278.87
2022-08-20T06:18:28.530Z,93272.45
2022-08-20T06:23:23.525Z,93268.88
2022-08-20T06:28:30.236Z,93266.10
2022-08-20T06:33:37.281Z,93267.02
2022-08-20T06:38:45.196Z,93260.61
2022-08-20T06:43:53.510Z,93264.98
2022-08-20T06:49:00.262Z,93264.88
2022-08-20T06:54:08.874Z,93270.92
2022-08-20T06:59:16.206Z,93272.45
2022-08-20T07:04:26.394Z,93271.99
2022-08-20T07:09:36.088Z,93267.30
2022-08-20T07:14:42.800Z,93262.91
2022-08-20T07:19:49.526Z,93260.27
2022-08-20T07:24:56.769Z,93260.11
2022-08-20T07:30:22.801Z,93259.66
2022-08-20T07:35:30.349Z,93265.11
2022-08-20T07:40:38.282Z,93262.39
2022-08-20T07:45:48.522Z,93254.00
2022-08-20T07:50:57.480Z,93254.57
2022-08-20T07:56:11.398Z,93253.73
2022-08-20T08:01:30.118Z,93255.22
2022-08-20T08:06:37.357Z,93260.42
2022-08-20T08:11:51.493Z,93259.70
2022-08-20T08:17:02.682Z,93259.48
2022-08-20T08:22:14.144Z,93260.08
2022-08-20T08:27:23.825Z,93254.78
2022-08-20T08:32:32.984Z,93264.11
2022-08-20T08:37:39.721Z,93269.50
2022-08-20T08:42:57.611Z,93274.27
2022-08-20T08:48:06.494Z,93277.99
2022-08-20T08:53:26.280Z,93279.30
2022-08-20T08:58:34.720Z,93288.84
2022-08-20T09:03:45.081Z,93285.83
2022-08-20T09:08:58.645Z,93287.82
2022-08-20T09:14:05.561Z,93292.67
2022-08-20T09:19:17.118Z,93305.28
2022-08-20T09:24:25.722Z,93323.00
2022-08-20T09:29:33.277Z,93312.39
2022-08-20T09:34:44.463Z,93314.86
2022-08-20T09:39:52.121Z,93326.50
2022-08-20T09:45:02.643Z,93325.73
2022-08-20T09:50:12.192Z,93320.06
2022-08-20T09:55:41.516Z,93322.94
2022-08-20T10:00:50.968Z,93329.64
2022-08-20T10:05:58.218Z,93324.35
2022-08-20T10:11:06.450Z,93325.33
2022-08-20T10:16:13.478Z,93320.23
2022-08-20T10:21:21.196Z,93310.41
2022-08-20T10:26:28.675Z,93306.34
2022-08-20T10:31:36.651Z,93304.47
2022-08-20T10:36:45.864Z,93294.30
2022-08-20T10:41:53.700Z,93293.25
2022-08-20T10:47:01.454Z,93291.17
2022-08-20T10:52:08.274Z,93293.07
2022-08-20T10:57:19.945Z,93289.59
2022-08-20T11:02:29.373Z,93295.95
2022-08-20T11:07:55.255Z,93294.66
2022-08-20T11:12:48.905Z,93292.55
2022-08-20T11:17:56.945Z,93286.86
2022-08-20T11:23:04.997Z,93285.02
2022-08-20T11:28:13.525Z,93269.88
2022-08-20T11:33:20.295Z,93266.08
2022-08-20T11:38:28.630Z,93277.53
2022-08-20T11:43:35.381Z,93274.06
2022-08-20T11:48:42.133Z,93280.75
2022-08-20T11:53:49.312Z,93296.25
2022-08-20T11:58:56.064Z,93304.98
2022-08-20T12:04:02.875Z,93310.14
2022-08-20T12:09:09.605Z,93316.20
2022-08-20T12:14:16.324Z,93312.01
2022-08-20T12:19:23.085Z,93316.80
2022-08-20T12:24:29.792Z,93316.51
2022-08-20T12:29:36.538Z,93316.23
2022-08-20T12:34:44.786Z,93315.66
2022-08-20T12:39:56.172Z,93313.42
2022-08-20T12:45:03.315Z,93308.17
2022-08-20T12:50:14.903Z,93305.17
2022-08-20T12:55:22.721Z,93303.27
2022-08-20T13:00:33.980Z,93305.71
2022-08-20T13:05:43.215Z,93300.10
2022-08-20T13:10:50.023Z,93289.86
2022-08-20T13:15:58.050Z,93289.31
2022-08-20T13:21:04.774Z,93294.52
2022-08-20T13:26:11.518Z,93293.86
2022-08-20T13:31:18.142Z,93291.59
2022-08-20T13:36:26.675Z,93291.29
2022-08-20T13:41:33.417Z,93294.37
2022-08-20T13:46:42.750Z,93274.43
2022-08-20T13:51:52.062Z,93280.44
2022-08-20T13:57:10.853Z,93264.85
2022-08-20T14:02:20.417Z,93259.42
2022-08-20T14:07:32.680Z,93249.55
2022-08-20T14:12:39.489Z,93250.27
2022-08-20T14:17:58.866Z,93251.48
2022-08-20T14:23:07.642Z,93255.01
2022-08-20T14:28:21.095Z,93253.45
2022-08-20T14:33:26.804Z,93265.77
2022-08-20T14:38:34.031Z,93258.99
2022-08-20T14:43:41.424Z,93265.11
2022-08-20T14:48:53.412Z,93283.51
2022-08-20T14:53:58.094Z,93276.98
2022-08-20T14:59:04.920Z,93273.44
2022-08-20T15:04:11.787Z,93275.67
2022-08-20T15:09:19.087Z,93291.98
2022-08-20T15:14:27.341Z,93301.97
2022-08-20T15:19:38.126Z,93303.31
2022-08-20T15:24:46.411Z,93318.83
2022-08-20T15:29:54.739Z,93309.52
2022-08-20T15:35:02.749Z,93311.06
2022-08-20T15:40:16.023Z,93307.25
2022-08-20T15:45:23.401Z,93313.05
2022-08-20T15:50:55.502Z,93310.96
2022-08-20T15:56:23.026Z,93312.97
2022-08-20T16:01:40.742Z,93305.06
2022-08-20T16:06:52.209Z,93315.27
2022-08-20T16:12:12.804Z,93325.61
2022-08-20T16:17:39.380Z,93325.25
2022-08-20T16:22:49.234Z,93327.27
2022-08-20T16:28:10.679Z,93325.22
2022-08-20T16:38:48.430Z,93321.72
2022-08-20T16:44:18.343Z,93328.04
2022-08-20T16:49:29.585Z,93324.44
2022-08-20T16:54:36.445Z,93332.28
2022-08-20T17:00:44.795Z,93320.70
2022-08-20T17:05:51.930Z,93319.27
2022-08-20T17:11:15.404Z,93319.11
2022-08-20T17:16:23.695Z,93323.70
2022-08-20T17:21:38.671Z,93328.70
2022-08-20T17:27:08.112Z,93319.24
2022-08-20T17:32:29.587Z,93334.03
2022-08-20T17:37:40.803Z,93337.75
2022-08-20T17:43:03.986Z,93345.03
2022-08-20T17:48:27.360Z,93343.59
2022-08-20T17:53:40.533Z,93345.55
2022-08-20T17:59:07.084Z,93354.13
2022-08-20T18:04:15.591Z,93350.97
2022-08-20T18:10:03.546Z,93351.65
2022-08-20T18:15:33.407Z,93358.02
2022-08-20T18:21:18.044Z,93349.18
2022-08-20T18:26:39.886Z,93355.45
2022-08-20T18:31:54.275Z,93364.23
2022-08-20T18:37:20.480Z,93356.59
2022-08-20T18:42:37.754Z,93357.48
2022-08-20T18:47:47.800Z,93366.45
2022-08-20T18:53:08.598Z,93367.89
2022-08-20T18:58:31.879Z,93362.41
2022-08-20T19:03:52.305Z,93358.38
2022-08-20T19:09:35.427Z,93366.44
2022-08-20T19:15:10.223Z,93366.66
2022-08-20T19:20:24.689Z,93380.13
2022-08-20T19:25:38.674Z,93379.55
2022-08-20T19:30:45.910Z,93382.66
2022-08-20T19:35:53.025Z,93384.72
2022-08-20T19:41:11.747Z,93378.09
2022-08-20T19:46:11.021Z,93373.18
2022-08-20T19:51:45.770Z,93380.91
2022-08-20T19:56:53.572Z,93377.63
2022-08-20T20:02:04.366Z,93375.06
2022-08-20T20:07:27.273Z,93368.58
2022-08-20T20:12:37.348Z,93364.35
2022-08-20T20:17:46.514Z,93379.83
2022-08-20T20:23:06.835Z,93380.72
2022-08-20T20:28:23.343Z,93379.56
2022-08-20T20:33:35.915Z,93380.52
2022-08-20T20:38:59.323Z,93375.79
2022-08-20T20:44:11.124Z,93373.52
2022-08-20T20:49:37.221Z,93370.59
2022-08-20T20:54:47.573Z,93369.02
2022-08-20T20:59:55.903Z,93359.77
2022-08-20T21:05:03.485Z,93373.24
2022-08-20T21:10:10.413Z,93373.78
2022-08-20T21:15:17.229Z,93360.97
2022-08-20T21:20:24.835Z,93360.06
2022-08-20T21:25:35.577Z,93361.53
2022-08-20T21:30:42.534Z,93357.70
2022-08-20T21:35:53.001Z,93342.97
2022-08-20T21:41:02.602Z,93342.97
2022-08-20T21:46:14.456Z,93335.74
2022-08-20T21:51:23.853Z,93349.36
2022-08-20T21:56:33.323Z,93338.03
2022-08-20T22:01:42.474Z,93339.04
2022-08-20T22:06:50.700Z,93334.89
2022-08-20T22:12:00.770Z,93336.47
2022-08-20T22:17:09.801Z,93342.76
2022-08-20T22:22:19.633Z,93346.79
2022-08-20T22:27:26.829Z,93347.73
2022-08-20T22:32:51.440Z,93359.45
2022-08-20T22:37:46.550Z,93354.23
2022-08-20T22:42:53.270Z,93365.78
2022-08-20T22:48:02.776Z,93350.53
2022-08-20T22:53:12.459Z,93340.17
2022-08-20T22:58:30.342Z,93346.50
2022-08-20T23:03:39.593Z,93348.45
2022-08-20T23:08:46.517Z,93350.06
2022-08-20T23:13:54.362Z,93337.53
2022-08-20T23:19:01.692Z,93337.30
2022-08-20T23:24:14.436Z,93328.34
2022-08-20T23:29:22.197Z,93319.61
2022-08-20T23:34:30.389Z,93328.11
2022-08-20T23:39:39.777Z,93327.61
2022-08-20T23:44:47.380Z,93320.94
2022-08-20T23:49:57.455Z,93311.26
2022-08-20T23:55:05.382Z,93308.19
